sensor_id;sensor_type;location;lat;lon;timestamp;P1;durP1;ratioP1;P2;durP2;ratioP2
6438;SDS011;3252;52.540;13.290;2023-06-22T00:00:29;13.03;;;11.83;;
6438;SDS011;3252;52.540;13.290;2023-06-22T00:02:31;13.17;;;11.77;;
6438;SDS011;3252;52.540;13.290;2023-06-22T00:04:34;13.53;;;12.13;;
6438;SDS011;3252;52.540;13.290;2023-06-22T00:06:36;14.20;;;11.73;;
6438;SDS011;3252;52.540;13.290;2023-06-22T00:08:40;15.53;;;12.13;;
6438;SDS011;3252;52.540;13.290;2023-06-22T00:10:42;12.43;;;11.23;;
6438;SDS011;3252;52.540;13.290;2023-06-22T00:12:48;16.87;;;11.87;;
6438;SDS011;3252;52.540;13.290;2023-06-22T00:14:50;12.93;;;11.63;;
6438;SDS011;3252;52.540;13.290;2023-06-22T00:16:54;13.07;;;11.80;;
6438;SDS011;3252;52.540;13.290;2023-06-22T00:18:57;14.27;;;11.83;;
6438;SDS011;3252;52.540;13.290;2023-06-22T00:21:03;14.33;;;11.90;;
6438;SDS011;3252;52.540;13.290;2023-06-22T00:23:06;12.90;;;11.50;;
6438;SDS011;3252;52.540;13.290;2023-06-22T00:25:09;14.40;;;12.03;;
6438;SDS011;3252;52.540;13.290;2023-06-22T00:27:12;12.47;;;11.23;;
6438;SDS011;3252;52.540;13.290;2023-06-22T00:29:17;13.23;;;11.70;;
6438;SDS011;3252;52.540;13.290;2023-06-22T00:31:19;14.20;;;12.80;;
6438;SDS011;3252;52.540;13.290;2023-06-22T00:33:21;14.70;;;11.37;;
6438;SDS011;3252;52.540;13.290;2023-06-22T00:35:23;14.80;;;12.57;;
6438;SDS011;3252;52.540;13.290;2023-06-22T00:37:29;14.80;;;11.50;;
6438;SDS011;3252;52.540;13.290;2023-06-22T00:39:31;15.30;;;11.40;;
6438;SDS011;3252;52.540;13.290;2023-06-22T00:41:34;16.30;;;10.87;;
6438;SDS011;3252;52.540;13.290;2023-06-22T00:43:39;13.90;;;11.20;;
6438;SDS011;3252;52.540;13.290;2023-06-22T00:45:45;11.47;;;10.27;;
6438;SDS011;3252;52.540;13.290;2023-06-22T00:47:47;12.13;;;10.73;;
6438;SDS011;3252;52.540;13.290;2023-06-22T00:49:50;11.97;;;10.73;;
6438;SDS011;3252;52.540;13.290;2023-06-22T00:51:52;13.67;;;10.73;;
6438;SDS011;3252;52.540;13.290;2023-06-22T00:53:55;13.83;;;11.27;;
6438;SDS011;3252;52.540;13.290;2023-06-22T00:55:58;12.63;;;11.33;;
6438;SDS011;3252;52.540;13.290;2023-06-22T00:58:26;12.10;;;10.60;;
6438;SDS011;3252;52.540;13.290;2023-06-22T01:00:29;11.93;;;10.47;;
6438;SDS011;3252;52.540;13.290;2023-06-22T01:02:35;12.43;;;10.93;;
6438;SDS011;3252;52.540;13.290;2023-06-22T01:04:39;12.37;;;10.33;;
6438;SDS011;3252;52.540;13.290;2023-06-22T01:06:44;11.40;;;10.20;;
6438;SDS011;3252;52.540;13.290;2023-06-22T01:08:56;13.17;;;11.00;;
6438;SDS011;3252;52.540;13.290;2023-06-22T01:11:07;12.17;;;10.10;;
6438;SDS011;3252;52.540;13.290;2023-06-22T01:13:15;12.80;;;10.47;;
6438;SDS011;3252;52.540;13.290;2023-06-22T01:15:25;14.10;;;10.03;;
6438;SDS011;3252;52.540;13.290;2023-06-22T01:17:33;12.60;;;10.17;;
6438;SDS011;3252;52.540;13.290;2023-06-22T01:19:39;11.47;;;10.27;;
6438;SDS011;3252;52.540;13.290;2023-06-22T01:21:47;11.93;;;10.80;;
6438;SDS011;3252;52.540;13.290;2023-06-22T01:23:58;13.13;;;9.63;;
6438;SDS011;3252;52.540;13.290;2023-06-22T01:26:16;12.40;;;10.10;;
6438;SDS011;3252;52.540;13.290;2023-06-22T01:28:33;12.10;;;9.60;;
6438;SDS011;3252;52.540;13.290;2023-06-22T01:30:47;11.60;;;9.97;;
6438;SDS011;3252;52.540;13.290;2023-06-22T01:33:03;11.50;;;9.60;;
6438;SDS011;3252;52.540;13.290;2023-06-22T01:35:08;11.17;;;9.83;;
6438;SDS011;3252;52.540;13.290;2023-06-22T01:37:12;11.07;;;9.60;;
6438;SDS011;3252;52.540;13.290;2023-06-22T01:39:17;12.33;;;9.43;;
6438;SDS011;3252;52.540;13.290;2023-06-22T01:41:20;10.80;;;9.60;;
6438;SDS011;3252;52.540;13.290;2023-06-22T01:43:24;13.33;;;10.63;;
6438;SDS011;3252;52.540;13.290;2023-06-22T01:45:31;11.63;;;10.43;;
6438;SDS011;3252;52.540;13.290;2023-06-22T01:47:33;11.37;;;10.17;;
6438;SDS011;3252;52.540;13.290;2023-06-22T01:49:36;12.90;;;10.20;;
6438;SDS011;3252;52.540;13.290;2023-06-22T01:51:39;10.90;;;9.80;;
6438;SDS011;3252;52.540;13.290;2023-06-22T01:53:41;12.47;;;10.40;;
6438;SDS011;3252;52.540;13.290;2023-06-22T01:55:44;12.07;;;9.57;;
6438;SDS011;3252;52.540;13.290;2023-06-22T01:57:46;10.60;;;9.33;;
6438;SDS011;3252;52.540;13.290;2023-06-22T01:59:51;10.77;;;9.23;;
6438;SDS011;3252;52.540;13.290;2023-06-22T02:02:04;12.30;;;9.57;;
6438;SDS011;3252;52.540;13.290;2023-06-22T02:04:11;14.83;;;9.20;;
6438;SDS011;3252;52.540;13.290;2023-06-22T02:06:17;11.37;;;9.97;;
6438;SDS011;3252;52.540;13.290;2023-06-22T02:08:26;12.17;;;9.67;;
6438;SDS011;3252;52.540;13.290;2023-06-22T02:10:33;10.73;;;9.70;;
6438;SDS011;3252;52.540;13.290;2023-06-22T02:12:37;10.53;;;9.20;;
6438;SDS011;3252;52.540;13.290;2023-06-22T02:14:40;13.00;;;10.27;;
6438;SDS011;3252;52.540;13.290;2023-06-22T02:16:43;14.43;;;10.07;;
6438;SDS011;3252;52.540;13.290;2023-06-22T02:18:48;11.37;;;9.37;;
6438;SDS011;3252;52.540;13.290;2023-06-22T02:21:00;10.00;;;8.60;;
6438;SDS011;3252;52.540;13.290;2023-06-22T02:23:04;11.10;;;9.47;;
6438;SDS011;3252;52.540;13.290;2023-06-22T02:25:09;13.57;;;9.80;;
6438;SDS011;3252;52.540;13.290;2023-06-22T02:27:13;11.87;;;9.63;;
6438;SDS011;3252;52.540;13.290;2023-06-22T02:29:15;12.40;;;9.10;;
6438;SDS011;3252;52.540;13.290;2023-06-22T02:31:18;10.27;;;9.17;;
6438;SDS011;3252;52.540;13.290;2023-06-22T02:33:21;12.83;;;9.83;;
6438;SDS011;3252;52.540;13.290;2023-06-22T02:35:25;11.73;;;9.70;;
6438;SDS011;3252;52.540;13.290;2023-06-22T02:37:32;16.33;;;9.37;;
6438;SDS011;3252;52.540;13.290;2023-06-22T02:39:34;10.70;;;8.73;;
6438;SDS011;3252;52.540;13.290;2023-06-22T02:41:37;10.27;;;9.23;;
6438;SDS011;3252;52.540;13.290;2023-06-22T02:43:39;14.70;;;9.73;;
6438;SDS011;3252;52.540;13.290;2023-06-22T02:45:42;12.03;;;10.13;;
6438;SDS011;3252;52.540;13.290;2023-06-22T02:47:45;10.70;;;9.30;;
6438;SDS011;3252;52.540;13.290;2023-06-22T02:49:48;10.77;;;9.67;;
6438;SDS011;3252;52.540;13.290;2023-06-22T02:51:52;13.27;;;9.57;;
6438;SDS011;3252;52.540;13.290;2023-06-22T02:53:56;13.27;;;9.23;;
6438;SDS011;3252;52.540;13.290;2023-06-22T02:56:01;13.43;;;9.63;;
6438;SDS011;3252;52.540;13.290;2023-06-22T02:58:08;10.37;;;9.23;;
6438;SDS011;3252;52.540;13.290;2023-06-22T03:00:13;11.30;;;8.77;;
6438;SDS011;3252;52.540;13.290;2023-06-22T03:02:20;11.60;;;9.17;;
6438;SDS011;3252;52.540;13.290;2023-06-22T03:04:26;18.13;;;8.87;;
6438;SDS011;3252;52.540;13.290;2023-06-22T03:06:29;11.13;;;8.80;;
6438;SDS011;3252;52.540;13.290;2023-06-22T03:08:33;10.53;;;9.27;;
6438;SDS011;3252;52.540;13.290;2023-06-22T03:10:36;11.53;;;9.07;;
6438;SDS011;3252;52.540;13.290;2023-06-22T03:12:39;11.67;;;9.00;;
6438;SDS011;3252;52.540;13.290;2023-06-22T03:14:42;11.67;;;9.57;;
6438;SDS011;3252;52.540;13.290;2023-06-22T03:16:46;9.77;;;8.63;;
6438;SDS011;3252;52.540;13.290;2023-06-22T03:18:48;12.37;;;9.63;;
6438;SDS011;3252;52.540;13.290;2023-06-22T03:20:51;12.20;;;10.23;;
6438;SDS011;3252;52.540;13.290;2023-06-22T03:22:53;16.67;;;10.07;;
6438;SDS011;3252;52.540;13.290;2023-06-22T03:24:58;11.70;;;9.33;;
6438;SDS011;3252;52.540;13.290;2023-06-22T03:27:01;12.20;;;9.80;;
6438;SDS011;3252;52.540;13.290;2023-06-22T03:29:05;11.20;;;10.03;;
6438;SDS011;3252;52.540;13.290;2023-06-22T03:31:09;14.90;;;10.63;;
6438;SDS011;3252;52.540;13.290;2023-06-22T03:33:14;12.37;;;9.53;;
6438;SDS011;3252;52.540;13.290;2023-06-22T03:35:16;11.67;;;9.63;;
6438;SDS011;3252;52.540;13.290;2023-06-22T03:37:18;11.90;;;9.20;;
6438;SDS011;3252;52.540;13.290;2023-06-22T03:39:21;16.63;;;10.87;;
6438;SDS011;3252;52.540;13.290;2023-06-22T03:41:24;11.13;;;9.57;;
6438;SDS011;3252;52.540;13.290;2023-06-22T03:43:27;11.77;;;9.40;;
6438;SDS011;3252;52.540;13.290;2023-06-22T03:45:30;13.47;;;10.13;;
6438;SDS011;3252;52.540;13.290;2023-06-22T03:47:35;13.47;;;10.03;;
6438;SDS011;3252;52.540;13.290;2023-06-22T03:49:37;12.67;;;10.83;;
6438;SDS011;3252;52.540;13.290;2023-06-22T03:51:40;17.57;;;10.60;;
6438;SDS011;3252;52.540;13.290;2023-06-22T03:53:42;11.57;;;9.93;;
6438;SDS011;3252;52.540;13.290;2023-06-22T03:55:48;13.23;;;9.43;;
6438;SDS011;3252;52.540;13.290;2023-06-22T03:57:53;17.37;;;10.40;;
6438;SDS011;3252;52.540;13.290;2023-06-22T03:59:57;11.63;;;9.43;;
6438;SDS011;3252;52.540;13.290;2023-06-22T04:02:00;13.50;;;9.97;;
6438;SDS011;3252;52.540;13.290;2023-06-22T04:04:02;10.73;;;9.27;;
6438;SDS011;3252;52.540;13.290;2023-06-22T04:06:06;15.00;;;9.60;;
6438;SDS011;3252;52.540;13.290;2023-06-22T04:10:34;10.00;;;9.00;;
6438;SDS011;3252;52.540;13.290;2023-06-22T04:12:37;11.77;;;10.13;;
6438;SDS011;3252;52.540;13.290;2023-06-22T04:14:40;12.13;;;9.67;;
6438;SDS011;3252;52.540;13.290;2023-06-22T04:16:43;11.40;;;9.50;;
6438;SDS011;3252;52.540;13.290;2023-06-22T04:18:45;11.83;;;9.10;;
6438;SDS011;3252;52.540;13.290;2023-06-22T04:20:47;11.27;;;8.80;;
6438;SDS011;3252;52.540;13.290;2023-06-22T04:22:50;14.40;;;10.10;;
6438;SDS011;3252;52.540;13.290;2023-06-22T04:24:53;13.17;;;9.83;;
6438;SDS011;3252;52.540;13.290;2023-06-22T04:26:55;10.57;;;8.63;;
6438;SDS011;3252;52.540;13.290;2023-06-22T04:28:57;12.73;;;8.50;;
6438;SDS011;3252;52.540;13.290;2023-06-22T04:31:01;12.10;;;9.10;;
6438;SDS011;3252;52.540;13.290;2023-06-22T04:33:04;11.83;;;8.37;;
6438;SDS011;3252;52.540;13.290;2023-06-22T04:35:06;12.50;;;9.20;;
6438;SDS011;3252;52.540;13.290;2023-06-22T04:37:09;11.97;;;9.07;;
6438;SDS011;3252;52.540;13.290;2023-06-22T04:39:15;14.97;;;9.53;;
6438;SDS011;3252;52.540;13.290;2023-06-22T04:41:19;12.37;;;9.17;;
6438;SDS011;3252;52.540;13.290;2023-06-22T04:43:23;13.47;;;8.50;;
6438;SDS011;3252;52.540;13.290;2023-06-22T04:45:26;10.70;;;9.20;;
6438;SDS011;3252;52.540;13.290;2023-06-22T04:50:16;11.97;;;8.27;;
6438;SDS011;3252;52.540;13.290;2023-06-22T04:52:24;9.60;;;8.10;;
6438;SDS011;3252;52.540;13.290;2023-06-22T04:54:26;9.40;;;8.23;;
6438;SDS011;3252;52.540;13.290;2023-06-22T04:56:29;11.77;;;8.27;;
6438;SDS011;3252;52.540;13.290;2023-06-22T04:58:31;9.57;;;7.40;;
6438;SDS011;3252;52.540;13.290;2023-06-22T05:00:33;12.50;;;8.10;;
6438;SDS011;3252;52.540;13.290;2023-06-22T05:02:37;14.97;;;7.97;;
6438;SDS011;3252;52.540;13.290;2023-06-22T05:04:39;12.37;;;7.37;;
6438;SDS011;3252;52.540;13.290;2023-06-22T05:06:43;10.97;;;7.93;;
6438;SDS011;3252;52.540;13.290;2023-06-22T05:08:46;13.37;;;7.97;;
6438;SDS011;3252;52.540;13.290;2023-06-22T05:10:48;9.70;;;7.33;;
6438;SDS011;3252;52.540;13.290;2023-06-22T05:12:50;10.83;;;6.17;;
6438;SDS011;3252;52.540;13.290;2023-06-22T05:14:52;9.27;;;5.47;;
6438;SDS011;3252;52.540;13.290;2023-06-22T05:16:55;9.30;;;5.70;;
6438;SDS011;3252;52.540;13.290;2023-06-22T05:18:59;6.23;;;4.80;;
6438;SDS011;3252;52.540;13.290;2023-06-22T05:21:03;9.00;;;5.13;;
6438;SDS011;3252;52.540;13.290;2023-06-22T05:23:07;9.40;;;4.70;;
6438;SDS011;3252;52.540;13.290;2023-06-22T05:25:10;10.37;;;5.20;;
6438;SDS011;3252;52.540;13.290;2023-06-22T05:27:13;9.73;;;4.60;;
6438;SDS011;3252;52.540;13.290;2023-06-22T05:29:16;8.13;;;4.77;;
6438;SDS011;3252;52.540;13.290;2023-06-22T05:31:19;8.57;;;4.50;;
6438;SDS011;3252;52.540;13.290;2023-06-22T05:33:21;9.33;;;4.60;;
6438;SDS011;3252;52.540;13.290;2023-06-22T05:35:23;8.67;;;4.30;;
6438;SDS011;3252;52.540;13.290;2023-06-22T05:37:26;10.32;;;4.38;;
6438;SDS011;3252;52.540;13.290;2023-06-22T05:39:31;8.35;;;3.92;;
6438;SDS011;3252;52.540;13.290;2023-06-22T05:41:34;9.10;;;4.50;;
6438;SDS011;3252;52.540;13.290;2023-06-22T05:43:36;6.13;;;3.67;;
6438;SDS011;3252;52.540;13.290;2023-06-22T05:45:38;6.30;;;3.53;;
6438;SDS011;3252;52.540;13.290;2023-06-22T05:47:40;7.07;;;3.70;;
6438;SDS011;3252;52.540;13.290;2023-06-22T05:49:43;6.93;;;3.50;;
6438;SDS011;3252;52.540;13.290;2023-06-22T05:51:45;8.55;;;3.60;;
6438;SDS011;3252;52.540;13.290;2023-06-22T05:53:48;6.82;;;3.70;;
6438;SDS011;3252;52.540;13.290;2023-06-22T05:55:52;9.93;;;3.58;;
6438;SDS011;3252;52.540;13.290;2023-06-22T05:57:54;6.13;;;3.13;;
6438;SDS011;3252;52.540;13.290;2023-06-22T05:59:57;7.60;;;2.90;;
6438;SDS011;3252;52.540;13.290;2023-06-22T06:01:59;8.35;;;3.33;;
6438;SDS011;3252;52.540;13.290;2023-06-22T06:04:02;8.07;;;3.38;;
6438;SDS011;3252;52.540;13.290;2023-06-22T06:06:05;8.68;;;3.30;;
6438;SDS011;3252;52.540;13.290;2023-06-22T06:08:07;9.95;;;3.20;;
6438;SDS011;3252;52.540;13.290;2023-06-22T06:10:11;5.03;;;3.17;;
6438;SDS011;3252;52.540;13.290;2023-06-22T06:12:15;6.82;;;3.25;;
6438;SDS011;3252;52.540;13.290;2023-06-22T06:14:18;6.10;;;3.47;;
6438;SDS011;3252;52.540;13.290;2023-06-22T06:16:21;9.52;;;3.47;;
6438;SDS011;3252;52.540;13.290;2023-06-22T06:18:25;7.40;;;3.13;;
6438;SDS011;3252;52.540;13.290;2023-06-22T06:20:27;6.47;;;3.35;;
6438;SDS011;3252;52.540;13.290;2023-06-22T06:22:29;5.80;;;3.15;;
6438;SDS011;3252;52.540;13.290;2023-06-22T06:24:31;6.95;;;3.90;;
6438;SDS011;3252;52.540;13.290;2023-06-22T06:26:34;9.40;;;3.22;;
6438;SDS011;3252;52.540;13.290;2023-06-22T06:28:37;7.63;;;5.22;;
6438;SDS011;3252;52.540;13.290;2023-06-22T06:30:39;6.30;;;3.35;;
6438;SDS011;3252;52.540;13.290;2023-06-22T06:32:43;6.15;;;3.30;;
6438;SDS011;3252;52.540;13.290;2023-06-22T06:34:46;5.80;;;3.22;;
6438;SDS011;3252;52.540;13.290;2023-06-22T06:36:48;4.40;;;3.00;;
6438;SDS011;3252;52.540;13.290;2023-06-22T06:38:51;9.93;;;3.20;;
6438;SDS011;3252;52.540;13.290;2023-06-22T06:40:53;5.18;;;3.10;;
6438;SDS011;3252;52.540;13.290;2023-06-22T06:42:56;4.97;;;2.92;;
6438;SDS011;3252;52.540;13.290;2023-06-22T06:44:59;7.00;;;3.92;;
6438;SDS011;3252;52.540;13.290;2023-06-22T06:47:01;12.00;;;4.53;;
6438;SDS011;3252;52.540;13.290;2023-06-22T06:49:04;8.63;;;3.33;;
6438;SDS011;3252;52.540;13.290;2023-06-22T06:51:06;12.18;;;3.45;;
6438;SDS011;3252;52.540;13.290;2023-06-22T06:53:09;11.13;;;3.85;;
6438;SDS011;3252;52.540;13.290;2023-06-22T06:55:13;10.93;;;3.55;;
6438;SDS011;3252;52.540;13.290;2023-06-22T06:57:15;9.50;;;4.00;;
6438;SDS011;3252;52.540;13.290;2023-06-22T06:59:17;8.80;;;4.00;;
6438;SDS011;3252;52.540;13.290;2023-06-22T07:01:21;9.52;;;3.53;;
6438;SDS011;3252;52.540;13.290;2023-06-22T07:03:23;7.25;;;3.70;;
6438;SDS011;3252;52.540;13.290;2023-06-22T07:05:25;4.60;;;3.45;;
6438;SDS011;3252;52.540;13.290;2023-06-22T07:07:27;7.18;;;3.40;;
6438;SDS011;3252;52.540;13.290;2023-06-22T07:09:30;6.20;;;3.58;;
6438;SDS011;3252;52.540;13.290;2023-06-22T07:11:32;6.18;;;3.92;;
6438;SDS011;3252;52.540;13.290;2023-06-22T07:13:35;8.30;;;3.97;;
6438;SDS011;3252;52.540;13.290;2023-06-22T07:15:38;7.40;;;3.03;;
6438;SDS011;3252;52.540;13.290;2023-06-22T07:17:42;4.80;;;3.10;;
6438;SDS011;3252;52.540;13.290;2023-06-22T07:19:44;4.88;;;3.05;;
6438;SDS011;3252;52.540;13.290;2023-06-22T07:21:46;9.13;;;3.13;;
6438;SDS011;3252;52.540;13.290;2023-06-22T07:23:49;8.32;;;2.78;;
6438;SDS011;3252;52.540;13.290;2023-06-22T07:25:51;9.35;;;6.90;;
6438;SDS011;3252;52.540;13.290;2023-06-22T07:27:57;5.88;;;3.30;;
6438;SDS011;3252;52.540;13.290;2023-06-22T07:30:00;5.20;;;2.67;;
6438;SDS011;3252;52.540;13.290;2023-06-22T07:32:03;6.38;;;3.33;;
6438;SDS011;3252;52.540;13.290;2023-06-22T07:34:08;7.43;;;2.83;;
6438;SDS011;3252;52.540;13.290;2023-06-22T07:36:11;5.72;;;3.00;;
6438;SDS011;3252;52.540;13.290;2023-06-22T07:38:13;7.75;;;2.67;;
6438;SDS011;3252;52.540;13.290;2023-06-22T07:40:17;4.75;;;2.70;;
6438;SDS011;3252;52.540;13.290;2023-06-22T07:42:20;5.57;;;3.00;;
6438;SDS011;3252;52.540;13.290;2023-06-22T07:44:23;7.30;;;2.88;;
6438;SDS011;3252;52.540;13.290;2023-06-22T07:46:26;6.60;;;2.88;;
6438;SDS011;3252;52.540;13.290;2023-06-22T07:48:30;4.38;;;2.70;;
6438;SDS011;3252;52.540;13.290;2023-06-22T07:50:34;5.50;;;2.72;;
6438;SDS011;3252;52.540;13.290;2023-06-22T07:52:36;6.40;;;3.10;;
6438;SDS011;3252;52.540;13.290;2023-06-22T07:54:38;6.80;;;3.05;;
6438;SDS011;3252;52.540;13.290;2023-06-22T07:56:40;4.40;;;2.60;;
6438;SDS011;3252;52.540;13.290;2023-06-22T07:58:43;7.45;;;2.58;;
6438;SDS011;3252;52.540;13.290;2023-06-22T08:00:45;9.02;;;2.55;;
6438;SDS011;3252;52.540;13.290;2023-06-22T08:02:49;7.60;;;3.08;;
6438;SDS011;3252;52.540;13.290;2023-06-22T08:04:51;8.38;;;2.92;;
6438;SDS011;3252;52.540;13.290;2023-06-22T08:06:54;8.23;;;3.10;;
6438;SDS011;3252;52.540;13.290;2023-06-22T08:08:57;11.02;;;3.03;;
6438;SDS011;3252;52.540;13.290;2023-06-22T08:10:59;4.30;;;2.70;;
6438;SDS011;3252;52.540;13.290;2023-06-22T08:13:01;7.47;;;2.83;;
6438;SDS011;3252;52.540;13.290;2023-06-22T08:15:04;7.65;;;3.20;;
6438;SDS011;3252;52.540;13.290;2023-06-22T08:17:08;7.32;;;2.67;;
6438;SDS011;3252;52.540;13.290;2023-06-22T08:19:10;6.97;;;2.50;;
6438;SDS011;3252;52.540;13.290;2023-06-22T08:21:13;5.40;;;2.72;;
6438;SDS011;3252;52.540;13.290;2023-06-22T08:23:17;6.97;;;2.72;;
6438;SDS011;3252;52.540;13.290;2023-06-22T08:25:27;6.13;;;2.40;;
6438;SDS011;3252;52.540;13.290;2023-06-22T08:27:30;3.45;;;2.40;;
6438;SDS011;3252;52.540;13.290;2023-06-22T08:29:32;6.90;;;4.15;;
6438;SDS011;3252;52.540;13.290;2023-06-22T08:31:35;3.58;;;2.63;;
6438;SDS011;3252;52.540;13.290;2023-06-22T08:33:37;5.82;;;2.78;;
6438;SDS011;3252;52.540;13.290;2023-06-22T08:35:44;8.20;;;3.00;;
6438;SDS011;3252;52.540;13.290;2023-06-22T08:37:57;4.72;;;2.30;;
6438;SDS011;3252;52.540;13.290;2023-06-22T08:40:03;4.72;;;2.63;;
6438;SDS011;3252;52.540;13.290;2023-06-22T08:42:08;6.88;;;2.95;;
6438;SDS011;3252;52.540;13.290;2023-06-22T08:44:10;5.78;;;2.20;;
6438;SDS011;3252;52.540;13.290;2023-06-22T08:46:12;6.68;;;2.75;;
6438;SDS011;3252;52.540;13.290;2023-06-22T08:48:15;3.75;;;2.63;;
6438;SDS011;3252;52.540;13.290;2023-06-22T08:50:17;6.35;;;2.60;;
6438;SDS011;3252;52.540;13.290;2023-06-22T08:52:19;5.15;;;2.55;;
6438;SDS011;3252;52.540;13.290;2023-06-22T08:54:23;6.38;;;2.50;;
6438;SDS011;3252;52.540;13.290;2023-06-22T08:56:27;4.72;;;2.47;;
6438;SDS011;3252;52.540;13.290;2023-06-22T08:58:33;5.35;;;2.60;;
6438;SDS011;3252;52.540;13.290;2023-06-22T09:00:42;4.70;;;2.47;;
6438;SDS011;3252;52.540;13.290;2023-06-22T09:02:47;4.45;;;2.50;;
6438;SDS011;3252;52.540;13.290;2023-06-22T09:04:50;3.33;;;2.47;;
6438;SDS011;3252;52.540;13.290;2023-06-22T09:06:55;6.03;;;2.47;;
6438;SDS011;3252;52.540;13.290;2023-06-22T09:08:58;7.90;;;2.80;;
6438;SDS011;3252;52.540;13.290;2023-06-22T09:11:01;6.72;;;2.70;;
6438;SDS011;3252;52.540;13.290;2023-06-22T09:13:04;7.15;;;2.80;;
6438;SDS011;3252;52.540;13.290;2023-06-22T09:15:07;6.03;;;2.53;;
6438;SDS011;3252;52.540;13.290;2023-06-22T09:17:10;4.03;;;2.70;;
6438;SDS011;3252;52.540;13.290;2023-06-22T09:19:13;7.13;;;2.50;;
6438;SDS011;3252;52.540;13.290;2023-06-22T09:21:16;5.05;;;2.72;;
6438;SDS011;3252;52.540;13.290;2023-06-22T09:23:18;9.68;;;2.70;;
6438;SDS011;3252;52.540;13.290;2023-06-22T09:25:21;6.43;;;3.40;;
6438;SDS011;3252;52.540;13.290;2023-06-22T09:27:24;4.10;;;2.70;;
6438;SDS011;3252;52.540;13.290;2023-06-22T09:29:28;5.47;;;2.55;;
6438;SDS011;3252;52.540;13.290;2023-06-22T09:31:37;4.47;;;2.53;;
6438;SDS011;3252;52.540;13.290;2023-06-22T09:33:39;6.80;;;2.90;;
6438;SDS011;3252;52.540;13.290;2023-06-22T09:35:42;5.97;;;2.95;;
6438;SDS011;3252;52.540;13.290;2023-06-22T09:37:44;10.70;;;2.85;;
6438;SDS011;3252;52.540;13.290;2023-06-22T09:39:46;4.95;;;2.72;;
6438;SDS011;3252;52.540;13.290;2023-06-22T09:41:49;4.80;;;2.90;;
6438;SDS011;3252;52.540;13.290;2023-06-22T09:43:51;4.45;;;2.40;;
6438;SDS011;3252;52.540;13.290;2023-06-22T09:45:55;11.85;;;2.92;;
6438;SDS011;3252;52.540;13.290;2023-06-22T09:47:57;4.95;;;2.78;;
6438;SDS011;3252;52.540;13.290;2023-06-22T09:49:59;6.45;;;3.13;;
6438;SDS011;3252;52.540;13.290;2023-06-22T09:52:02;4.65;;;3.10;;
6438;SDS011;3252;52.540;13.290;2023-06-22T09:54:05;5.53;;;2.90;;
6438;SDS011;3252;52.540;13.290;2023-06-22T09:56:07;7.28;;;2.88;;
6438;SDS011;3252;52.540;13.290;2023-06-22T09:58:15;6.13;;;2.90;;
6438;SDS011;3252;52.540;13.290;2023-06-22T10:00:17;5.03;;;3.00;;
6438;SDS011;3252;52.540;13.290;2023-06-22T10:02:21;7.35;;;3.22;;
6438;SDS011;3252;52.540;13.290;2023-06-22T10:04:23;4.38;;;3.03;;
6438;SDS011;3252;52.540;13.290;2023-06-22T10:06:26;10.63;;;3.17;;
6438;SDS011;3252;52.540;13.290;2023-06-22T10:08:28;6.43;;;3.10;;
6438;SDS011;3252;52.540;13.290;2023-06-22T10:10:30;5.47;;;2.85;;
6438;SDS011;3252;52.540;13.290;2023-06-22T10:12:32;4.35;;;2.92;;
6438;SDS011;3252;52.540;13.290;2023-06-22T10:14:35;4.75;;;2.90;;
6438;SDS011;3252;52.540;13.290;2023-06-22T10:16:37;5.22;;;2.80;;
6438;SDS011;3252;52.540;13.290;2023-06-22T10:18:42;6.07;;;3.17;;
6438;SDS011;3252;52.540;13.290;2023-06-22T10:20:47;4.18;;;2.70;;
6438;SDS011;3252;52.540;13.290;2023-06-22T10:22:50;9.60;;;2.88;;
6438;SDS011;3252;52.540;13.290;2023-06-22T10:24:52;5.45;;;2.88;;
6438;SDS011;3252;52.540;13.290;2023-06-22T10:26:55;6.28;;;2.88;;
6438;SDS011;3252;52.540;13.290;2023-06-22T10:28:57;4.80;;;2.65;;
6438;SDS011;3252;52.540;13.290;2023-06-22T10:30:59;4.50;;;2.85;;
6438;SDS011;3252;52.540;13.290;2023-06-22T10:33:01;5.63;;;2.90;;
6438;SDS011;3252;52.540;13.290;2023-06-22T10:35:05;6.00;;;2.90;;
6438;SDS011;3252;52.540;13.290;2023-06-22T10:37:08;3.20;;;2.90;;
6438;SDS011;3252;52.540;13.290;2023-06-22T10:39:10;5.25;;;3.30;;
6438;SDS011;3252;52.540;13.290;2023-06-22T10:41:12;4.35;;;3.10;;
6438;SDS011;3252;52.540;13.290;2023-06-22T10:43:15;9.45;;;3.33;;
6438;SDS011;3252;52.540;13.290;2023-06-22T10:45:17;5.57;;;3.00;;
6438;SDS011;3252;52.540;13.290;2023-06-22T10:47:19;5.10;;;3.08;;
6438;SDS011;3252;52.540;13.290;2023-06-22T10:49:22;5.22;;;3.22;;
6438;SDS011;3252;52.540;13.290;2023-06-22T10:51:25;5.97;;;3.47;;
6438;SDS011;3252;52.540;13.290;2023-06-22T10:53:28;7.72;;;5.82;;
6438;SDS011;3252;52.540;13.290;2023-06-22T10:55:30;3.75;;;3.42;;
6438;SDS011;3252;52.540;13.290;2023-06-22T10:57:33;5.35;;;2.97;;
6438;SDS011;3252;52.540;13.290;2023-06-22T10:59:35;6.85;;;3.35;;
6438;SDS011;3252;52.540;13.290;2023-06-22T11:01:37;5.93;;;3.25;;
6438;SDS011;3252;52.540;13.290;2023-06-22T11:03:39;3.38;;;2.97;;
6438;SDS011;3252;52.540;13.290;2023-06-22T11:05:41;7.20;;;2.72;;
6438;SDS011;3252;52.540;13.290;2023-06-22T11:07:45;6.70;;;3.40;;
6438;SDS011;3252;52.540;13.290;2023-06-22T11:09:49;6.22;;;3.25;;
6438;SDS011;3252;52.540;13.290;2023-06-22T11:11:51;5.38;;;3.60;;
6438;SDS011;3252;52.540;13.290;2023-06-22T11:13:54;4.32;;;2.95;;
6438;SDS011;3252;52.540;13.290;2023-06-22T11:15:56;7.10;;;3.50;;
6438;SDS011;3252;52.540;13.290;2023-06-22T11:17:59;4.75;;;3.20;;
6438;SDS011;3252;52.540;13.290;2023-06-22T11:20:01;4.60;;;3.22;;
6438;SDS011;3252;52.540;13.290;2023-06-22T11:22:10;6.18;;;3.22;;
6438;SDS011;3252;52.540;13.290;2023-06-22T11:24:13;4.38;;;3.13;;
6438;SDS011;3252;52.540;13.290;2023-06-22T11:26:16;6.03;;;3.50;;
6438;SDS011;3252;52.540;13.290;2023-06-22T11:28:18;4.85;;;3.30;;
6438;SDS011;3252;52.540;13.290;2023-06-22T11:30:20;6.95;;;3.50;;
6438;SDS011;3252;52.540;13.290;2023-06-22T11:32:23;4.15;;;3.30;;
6438;SDS011;3252;52.540;13.290;2023-06-22T11:34:25;4.93;;;3.58;;
6438;SDS011;3252;52.540;13.290;2023-06-22T11:36:28;6.88;;;3.40;;
6438;SDS011;3252;52.540;13.290;2023-06-22T11:38:33;5.50;;;3.30;;
6438;SDS011;3252;52.540;13.290;2023-06-22T11:40:38;8.18;;;3.45;;
6438;SDS011;3252;52.540;13.290;2023-06-22T11:42:40;6.00;;;3.42;;
6438;SDS011;3252;52.540;13.290;2023-06-22T11:44:43;11.95;;;3.35;;
6438;SDS011;3252;52.540;13.290;2023-06-22T11:46:45;5.60;;;3.38;;
6438;SDS011;3252;52.540;13.290;2023-06-22T11:48:48;7.35;;;3.30;;
6438;SDS011;3252;52.540;13.290;2023-06-22T11:50:52;4.30;;;3.28;;
6438;SDS011;3252;52.540;13.290;2023-06-22T11:53:06;8.10;;;3.03;;
6438;SDS011;3252;52.540;13.290;2023-06-22T11:55:13;6.55;;;3.50;;
6438;SDS011;3252;52.540;13.290;2023-06-22T11:57:17;6.60;;;3.28;;
6438;SDS011;3252;52.540;13.290;2023-06-22T11:59:27;8.77;;;3.63;;
6438;SDS011;3252;52.540;13.290;2023-06-22T12:01:32;8.00;;;3.42;;
6438;SDS011;3252;52.540;13.290;2023-06-22T12:03:37;9.52;;;3.83;;
6438;SDS011;3252;52.540;13.290;2023-06-22T12:05:49;5.90;;;3.50;;
6438;SDS011;3252;52.540;13.290;2023-06-22T12:07:54;3.75;;;2.97;;
6438;SDS011;3252;52.540;13.290;2023-06-22T12:09:56;3.80;;;3.25;;
6438;SDS011;3252;52.540;13.290;2023-06-22T12:11:58;7.72;;;3.30;;
6438;SDS011;3252;52.540;13.290;2023-06-22T12:14:02;6.35;;;3.20;;
6438;SDS011;3252;52.540;13.290;2023-06-22T12:16:05;5.95;;;3.13;;
6438;SDS011;3252;52.540;13.290;2023-06-22T12:18:07;3.90;;;3.50;;
6438;SDS011;3252;52.540;13.290;2023-06-22T12:20:10;5.93;;;3.63;;
6438;SDS011;3252;52.540;13.290;2023-06-22T12:22:12;7.40;;;3.50;;
6438;SDS011;3252;52.540;13.290;2023-06-22T12:24:15;4.32;;;3.20;;
6438;SDS011;3252;52.540;13.290;2023-06-22T12:26:17;5.15;;;3.75;;
6438;SDS011;3252;52.540;13.290;2023-06-22T12:28:19;6.10;;;3.65;;
6438;SDS011;3252;52.540;13.290;2023-06-22T12:30:23;4.03;;;3.20;;
6438;SDS011;3252;52.540;13.290;2023-06-22T12:32:25;3.42;;;3.13;;
6438;SDS011;3252;52.540;13.290;2023-06-22T12:34:27;3.90;;;3.10;;